createdAt,value
2023-02-23T00:00:29.315Z,60.83
2023-02-23T00:03:01.028Z,69.80
2023-02-23T00:05:29.966Z,72.03
2023-02-23T00:07:58.377Z,65.87
2023-02-23T00:10:30.528Z,63.00
2023-02-23T00:12:59.550Z,56.03
2023-02-23T00:15:28.121Z,52.97
2023-02-23T00:17:56.642Z,53.13
2023-02-23T00:20:27.531Z,52.57
2023-02-23T00:22:56.134Z,55.23
2023-02-23T00:25:24.615Z,53.13
2023-02-23T00:27:53.067Z,53.00
2023-02-23T00:30:21.730Z,60.30
2023-02-23T00:32:52.384Z,54.57
2023-02-23T00:35:20.591Z,54.70
2023-02-23T00:37:50.718Z,54.27
2023-02-23T00:40:21.346Z,54.20
2023-02-23T00:42:52.283Z,54.07
2023-02-23T00:45:20.517Z,54.33
2023-02-23T00:47:49.430Z,55.87
2023-02-23T00:50:18.782Z,53.97
2023-02-23T00:52:46.979Z,54.77
2023-02-23T00:55:16.694Z,54.60
2023-02-23T00:57:44.831Z,54.17
2023-02-23T01:00:18.621Z,55.00
2023-02-23T01:02:46.858Z,50.87
2023-02-23T01:05:14.988Z,51.40
2023-02-23T01:07:46.422Z,50.37
2023-02-23T01:10:20.163Z,52.70
2023-02-23T01:12:50.498Z,55.40
2023-02-23T01:15:19.576Z,49.70
2023-02-23T01:17:48.161Z,56.87
2023-02-23T01:20:19.178Z,56.57
2023-02-23T01:22:48.443Z,57.27
2023-02-23T01:25:16.986Z,57.23
2023-02-23T01:27:45.371Z,58.80
2023-02-23T01:30:15.750Z,57.27
2023-02-23T01:32:43.893Z,62.37
2023-02-23T01:35:13.510Z,58.97
2023-02-23T01:37:42.980Z,57.93
2023-02-23T01:40:15.116Z,55.50
2023-02-23T01:42:44.391Z,55.03
2023-02-23T01:45:34.774Z,61.07
2023-02-23T01:48:05.870Z,59.00
2023-02-23T01:50:37.882Z,56.80
2023-02-23T01:53:07.143Z,63.97
2023-02-23T01:55:35.837Z,62.97
2023-02-23T01:58:07.036Z,69.40
2023-02-23T02:00:37.592Z,70.70
2023-02-23T02:03:08.742Z,74.63
2023-02-23T02:05:39.298Z,71.00
2023-02-23T02:08:10.327Z,74.30
2023-02-23T02:10:46.826Z,77.23
2023-02-23T02:13:18.234Z,73.57
2023-02-23T02:15:55.331Z,80.07
2023-02-23T02:18:30.650Z,78.13
2023-02-23T02:21:15.448Z,84.57
2023-02-23T02:24:08.481Z,76.07
2023-02-23T02:26:43.450Z,66.10
2023-02-23T02:29:31.289Z,69.47
2023-02-23T02:32:23.292Z,62.70
2023-02-23T02:35:07.489Z,71.30
2023-02-23T02:37:44.853Z,67.53
2023-02-23T02:40:18.002Z,69.63
2023-02-23T02:43:11.460Z,66.57
2023-02-23T02:45:43.232Z,73.40
2023-02-23T02:48:15.962Z,70.67
2023-02-23T02:50:46.462Z,75.33
2023-02-23T02:53:20.611Z,67.93
2023-02-23T02:55:49.434Z,74.13
2023-02-23T02:58:19.431Z,84.80
2023-02-23T03:01:06.395Z,75.27
2023-02-23T03:03:53.005Z,71.87
2023-02-23T03:06:39.105Z,72.73
2023-02-23T03:09:32.159Z,72.37
2023-02-23T03:12:23.086Z,77.73
2023-02-23T03:15:13.966Z,77.07
2023-02-23T03:18:02.798Z,91.80
2023-02-23T03:20:53.376Z,101.43
2023-02-23T03:23:39.962Z,103.97
2023-02-23T03:26:29.584Z,128.13
2023-02-23T03:29:18.484Z,130.93
2023-02-23T03:32:07.279Z,127.33
2023-02-23T03:34:56.819Z,145.90
2023-02-23T03:37:44.994Z,131.97
2023-02-23T03:40:33.249Z,119.23
2023-02-23T03:43:21.782Z,120.63
2023-02-23T03:46:08.208Z,104.50
2023-02-23T03:48:55.484Z,90.60
2023-02-23T03:51:42.127Z,80.13
2023-02-23T03:54:32.047Z,79.10
2023-02-23T03:57:19.184Z,79.73
2023-02-23T04:00:09.245Z,73.47
2023-02-23T04:02:56.142Z,70.20
2023-02-23T04:05:42.949Z,73.43
2023-02-23T04:08:31.232Z,73.60
2023-02-23T04:11:19.977Z,67.67
2023-02-23T04:13:49.620Z,62.33
2023-02-23T04:16:18.418Z,66.70
2023-02-23T04:18:46.836Z,61.93
2023-02-23T04:21:15.094Z,64.50
2023-02-23T04:23:44.191Z,64.47
2023-02-23T04:26:12.328Z,65.73
2023-02-23T04:28:40.520Z,61.67
2023-02-23T04:31:08.634Z,62.90
2023-02-23T04:33:38.142Z,67.77
2023-02-23T04:36:06.678Z,67.57
2023-02-23T04:38:34.930Z,60.73
2023-02-23T04:41:03.093Z,61.50
2023-02-23T04:43:31.264Z,62.13
2023-02-23T04:45:59.483Z,63.20
2023-02-23T04:48:27.702Z,67.57
2023-02-23T04:50:57.264Z,68.00
2023-02-23T04:53:27.129Z,69.90
2023-02-23T04:55:55.741Z,77.57
2023-02-23T04:58:23.884Z,69.20
2023-02-23T05:00:52.089Z,69.40
2023-02-23T05:03:20.255Z,67.63
2023-02-23T05:05:48.413Z,65.03
2023-02-23T05:08:17.935Z,61.47
2023-02-23T05:10:47.953Z,63.63
2023-02-23T05:13:16.279Z,64.43
2023-02-23T05:15:44.513Z,68.77
2023-02-23T05:18:12.710Z,63.17
2023-02-23T05:20:44.776Z,70.33
2023-02-23T05:23:13.105Z,69.67
2023-02-23T05:25:42.693Z,73.10
2023-02-23T05:28:10.896Z,76.73
2023-02-23T05:30:39.308Z,72.13
2023-02-23T05:33:07.523Z,78.90
2023-02-23T05:35:35.726Z,77.23
2023-02-23T05:38:03.932Z,66.33
2023-02-23T05:40:32.262Z,70.60
2023-02-23T05:43:02.082Z,68.73
2023-02-23T05:45:30.310Z,74.30
2023-02-23T05:47:58.538Z,65.37
2023-02-23T05:50:27.124Z,64.50
2023-02-23T05:52:55.304Z,67.23
2023-02-23T05:55:23.452Z,62.10
2023-02-23T05:57:51.715Z,63.37
2023-02-23T06:00:21.986Z,62.37
2023-02-23T06:02:52.311Z,65.00
2023-02-23T06:05:20.545Z,67.07
2023-02-23T06:07:48.794Z,69.03
2023-02-23T06:10:17.003Z,64.87
2023-02-23T06:12:45.209Z,66.80
2023-02-23T06:15:14.397Z,67.77
2023-02-23T06:17:43.868Z,69.57
2023-02-23T06:20:12.646Z,73.00
2023-02-23T06:22:42.223Z,70.67
2023-02-23T06:25:12.873Z,76.13
2023-02-23T06:27:42.250Z,72.07
2023-02-23T06:30:11.352Z,73.00
2023-02-23T06:32:39.784Z,71.57
2023-02-23T06:35:10.156Z,65.03
2023-02-23T06:37:38.349Z,64.00
2023-02-23T06:40:07.229Z,64.27
2023-02-23T06:42:36.702Z,64.87
2023-02-23T06:45:05.063Z,64.07
2023-02-23T06:47:33.627Z,63.30
2023-02-23T06:50:02.534Z,66.47
2023-02-23T06:52:32.006Z,73.00
2023-02-23T06:55:00.178Z,67.33
2023-02-23T06:57:28.415Z,69.23
2023-02-23T06:59:56.849Z,65.13
2023-02-23T07:02:25.051Z,62.60
2023-02-23T07:04:53.261Z,71.10
2023-02-23T07:07:22.204Z,65.33
2023-02-23T07:09:51.715Z,64.57
2023-02-23T07:12:20.166Z,62.93
2023-02-23T07:14:48.584Z,83.80
2023-02-23T07:17:17.778Z,65.63
2023-02-23T07:19:46.157Z,60.93
2023-02-23T07:22:14.289Z,58.60
2023-02-23T07:24:42.474Z,59.33
2023-02-23T07:27:11.978Z,55.30
2023-02-23T07:29:40.235Z,50.93
2023-02-23T07:32:09.309Z,50.60
2023-02-23T07:34:37.850Z,52.27
2023-02-23T07:37:06.047Z,45.13
2023-02-23T07:39:34.178Z,46.47
2023-02-23T07:42:02.333Z,48.80
2023-02-23T07:44:31.825Z,46.10
2023-02-23T07:47:00.020Z,42.77
2023-02-23T07:49:28.248Z,39.73
2023-02-23T07:51:56.438Z,41.60
2023-02-23T07:54:25.382Z,39.13
2023-02-23T07:56:53.705Z,47.77
2023-02-23T07:59:21.953Z,42.53
2023-02-23T08:01:52.369Z,35.43
2023-02-23T08:04:20.757Z,30.77
2023-02-23T08:06:48.984Z,32.50
2023-02-23T08:09:17.149Z,29.87
2023-02-23T08:11:45.309Z,31.50
2023-02-23T08:14:13.785Z,31.27
2023-02-23T08:16:42.002Z,28.97
2023-02-23T08:19:12.114Z,31.30
2023-02-23T08:21:40.312Z,28.40
2023-02-23T08:24:08.700Z,28.57
2023-02-23T08:26:37.950Z,28.17
2023-02-23T08:29:06.645Z,26.80
2023-02-23T08:31:35.064Z,27.03
2023-02-23T08:34:03.342Z,25.73
2023-02-23T08:36:32.927Z,25.30
2023-02-23T08:39:02.281Z,26.33
2023-02-23T08:41:30.458Z,24.37
2023-02-23T08:44:00.182Z,19.50
2023-02-23T08:46:28.485Z,22.20
2023-02-23T08:48:57.312Z,21.20
2023-02-23T08:51:25.496Z,17.13
2023-02-23T08:53:57.129Z,18.33
2023-02-23T08:56:26.906Z,18.53
2023-02-23T08:58:55.038Z,18.43
2023-02-23T09:01:23.314Z,17.30
2023-02-23T09:03:51.569Z,17.47
2023-02-23T09:06:21.074Z,18.53
2023-02-23T09:08:49.639Z,19.20
2023-02-23T09:11:19.699Z,18.13
2023-02-23T09:13:48.052Z,17.03
2023-02-23T09:16:16.335Z,17.90
2023-02-23T09:18:44.615Z,15.80
2023-02-23T09:21:18.892Z,17.53
2023-02-23T09:23:48.129Z,16.70
2023-02-23T09:26:17.795Z,16.60
2023-02-23T09:28:47.804Z,16.20
2023-02-23T09:31:17.284Z,17.93
2023-02-23T09:33:45.724Z,16.50
2023-02-23T09:36:16.225Z,17.23
2023-02-23T09:38:44.909Z,23.13
2023-02-23T09:41:27.158Z,20.13
2023-02-23T09:44:01.134Z,17.07
2023-02-23T09:46:34.781Z,16.80
2023-02-23T09:49:04.169Z,16.30
2023-02-23T09:51:34.526Z,14.63
2023-02-23T09:54:04.426Z,14.47
2023-02-23T09:56:35.633Z,16.00
2023-02-23T09:59:07.364Z,17.07
2023-02-23T10:01:53.902Z,15.37
2023-02-23T10:04:23.552Z,15.87
2023-02-23T10:06:54.436Z,17.23
2023-02-23T10:09:25.621Z,15.50
2023-02-23T10:11:57.100Z,15.03
2023-02-23T10:14:35.144Z,16.33
2023-02-23T10:17:11.516Z,16.80
2023-02-23T10:19:44.568Z,15.53
2023-02-23T10:22:14.540Z,18.70
2023-02-23T10:24:44.616Z,18.33
2023-02-23T10:27:17.124Z,17.63
2023-02-23T10:29:50.144Z,17.53
2023-02-23T10:32:22.461Z,20.50
2023-02-23T10:34:54.227Z,21.10
2023-02-23T10:37:22.511Z,19.03
2023-02-23T10:39:51.414Z,22.23
2023-02-23T10:42:22.301Z,19.00
2023-02-23T10:44:52.082Z,17.97
2023-02-23T10:47:21.821Z,17.47
2023-02-23T10:49:51.500Z,20.20
2023-02-23T10:52:24.125Z,17.57
2023-02-23T10:54:52.964Z,17.60
2023-02-23T10:57:23.123Z,17.70
2023-02-23T11:00:03.406Z,21.03
2023-02-23T11:02:32.021Z,21.43
2023-02-23T11:05:01.112Z,21.20
2023-02-23T11:07:31.102Z,22.20
2023-02-23T11:10:00.008Z,23.33
2023-02-23T11:12:31.287Z,26.93
2023-02-23T11:14:59.676Z,29.70
2023-02-23T11:17:33.736Z,35.47
2023-02-23T11:20:02.909Z,39.20
2023-02-23T11:22:35.986Z,38.53
2023-02-23T11:25:06.794Z,44.20
2023-02-23T11:27:35.074Z,38.97
2023-02-23T11:30:07.166Z,31.87
2023-02-23T11:32:38.868Z,31.20
2023-02-23T11:35:15.146Z,26.27
2023-02-23T11:37:43.361Z,24.23
2023-02-23T11:40:21.673Z,28.33
2023-02-23T11:42:54.431Z,25.87
2023-02-23T11:45:24.076Z,25.43
2023-02-23T11:47:54.726Z,26.63
2023-02-23T11:50:24.580Z,29.43
2023-02-23T11:52:55.121Z,32.37
2023-02-23T11:55:25.456Z,35.23
2023-02-23T11:57:56.725Z,30.23
2023-02-23T12:00:27.324Z,30.60
2023-02-23T12:02:59.533Z,29.90
2023-02-23T12:05:28.754Z,31.37
2023-02-23T12:08:03.155Z,34.57
2023-02-23T12:10:32.731Z,30.47
2023-02-23T12:13:05.145Z,30.63
2023-02-23T12:15:37.604Z,30.10
2023-02-23T12:18:10.112Z,31.27
2023-02-23T12:20:40.917Z,29.43
2023-02-23T12:23:11.217Z,28.83
2023-02-23T12:25:42.509Z,32.97
2023-02-23T12:28:19.129Z,30.97
2023-02-23T12:30:50.121Z,31.60
2023-02-23T12:33:22.028Z,34.87
2023-02-23T12:35:54.286Z,32.67
2023-02-23T12:38:28.452Z,35.93
2023-02-23T12:41:01.281Z,37.10
2023-02-23T12:43:33.938Z,38.37
2023-02-23T12:46:18.005Z,39.13
2023-02-23T12:48:51.744Z,36.83
2023-02-23T12:51:26.183Z,35.70
2023-02-23T12:53:54.332Z,32.93
2023-02-23T12:56:35.504Z,38.37
2023-02-23T12:59:15.200Z,31.33
2023-02-23T13:01:45.548Z,26.60
2023-02-23T13:04:34.590Z,30.63
2023-02-23T13:07:08.107Z,26.83
2023-02-23T13:09:42.149Z,19.53
2023-02-23T13:12:28.305Z,20.53
2023-02-23T13:14:59.952Z,25.47
2023-02-23T13:17:32.927Z,22.43
2023-02-23T13:20:04.593Z,19.20
2023-02-23T13:22:36.855Z,22.07
2023-02-23T13:25:06.582Z,18.57
2023-02-23T13:27:37.236Z,19.70
2023-02-23T13:30:06.123Z,17.23
2023-02-23T13:32:37.594Z,19.00
2023-02-23T13:35:08.293Z,21.63
2023-02-23T13:37:41.306Z,20.27
2023-02-23T13:40:21.258Z,18.10
2023-02-23T13:42:58.668Z,20.00
2023-02-23T13:45:37.694Z,21.03
2023-02-23T13:48:12.899Z,22.40
2023-02-23T13:50:47.006Z,21.70
2023-02-23T13:53:29.834Z,22.97
2023-02-23T13:56:00.108Z,22.37
2023-02-23T13:58:30.545Z,25.40
2023-02-23T14:01:06.398Z,19.83
2023-02-23T14:03:38.313Z,21.10
2023-02-23T14:06:08.732Z,19.10
2023-02-23T14:08:37.825Z,17.60
2023-02-23T14:11:06.800Z,16.70
2023-02-23T14:13:36.366Z,16.40
2023-02-23T14:16:14.106Z,17.27
2023-02-23T14:19:12.327Z,12.80
2023-02-23T14:21:49.738Z,16.37
2023-02-23T14:24:19.839Z,13.27
2023-02-23T14:27:03.416Z,13.70
2023-02-23T14:29:33.063Z,15.03
2023-02-23T14:32:04.498Z,14.50
2023-02-23T14:34:45.829Z,16.40
2023-02-23T14:37:21.861Z,19.30
2023-02-23T14:39:51.357Z,18.20
2023-02-23T14:42:23.048Z,20.83
2023-02-23T14:44:52.556Z,16.77
2023-02-23T14:47:21.933Z,17.50
2023-02-23T14:49:51.770Z,15.73
2023-02-23T14:52:24.499Z,14.17
2023-02-23T14:54:53.106Z,12.80
2023-02-23T14:57:22.645Z,11.10
2023-02-23T14:59:58.137Z,14.93
2023-02-23T15:02:27.767Z,8.57
2023-02-23T15:04:56.114Z,13.40
2023-02-23T15:07:31.516Z,12.13
2023-02-23T15:10:01.055Z,15.77
2023-02-23T15:12:31.104Z,13.57
2023-02-23T15:15:00.680Z,16.90
2023-02-23T15:17:31.878Z,17.37
2023-02-23T15:20:14.892Z,16.50
2023-02-23T15:22:48.270Z,22.63
2023-02-23T15:25:17.435Z,23.53
2023-02-23T15:27:46.665Z,24.53
2023-02-23T15:30:27.423Z,21.97
2023-02-23T15:33:02.812Z,25.73
2023-02-23T15:35:32.237Z,26.40
2023-02-23T15:38:14.259Z,28.53
2023-02-23T15:40:51.718Z,26.77
2023-02-23T15:43:19.962Z,32.47
2023-02-23T15:45:51.088Z,23.50
2023-02-23T15:48:22.738Z,26.57
2023-02-23T15:50:53.203Z,27.17
2023-02-23T15:53:28.830Z,26.37
2023-02-23T15:56:00.762Z,22.33
2023-02-23T15:58:30.193Z,20.57
2023-02-23T16:00:59.715Z,23.07
2023-02-23T16:03:31.640Z,25.07
2023-02-23T16:06:04.041Z,25.57
2023-02-23T16:08:35.931Z,27.30
2023-02-23T16:11:11.879Z,24.40
2023-02-23T16:13:44.117Z,23.00
2023-02-23T16:16:19.139Z,22.73
2023-02-23T16:18:49.788Z,22.53
2023-02-23T16:21:21.294Z,26.17
2023-02-23T16:23:52.521Z,26.77
2023-02-23T16:26:24.269Z,28.60
2023-02-23T16:28:56.464Z,23.47
2023-02-23T16:31:28.033Z,29.87
2023-02-23T16:33:59.811Z,18.97
2023-02-23T16:36:37.825Z,25.63
2023-02-23T16:39:08.678Z,30.03
2023-02-23T16:41:37.043Z,24.03
2023-02-23T16:44:06.401Z,20.43
2023-02-23T16:46:37.753Z,24.87
2023-02-23T16:49:10.260Z,26.97
2023-02-23T16:51:38.623Z,21.40
2023-02-23T16:54:08.677Z,20.57
2023-02-23T16:56:37.047Z,24.27
2023-02-23T16:59:05.719Z,24.13
2023-02-23T17:01:33.928Z,28.73
2023-02-23T17:04:02.499Z,28.87
2023-02-23T17:06:30.728Z,29.73
2023-02-23T17:08:58.934Z,28.20
2023-02-23T17:11:28.621Z,35.63
2023-02-23T17:13:56.960Z,24.37
2023-02-23T17:16:25.379Z,29.40
2023-02-23T17:18:53.668Z,29.83
2023-02-23T17:21:23.817Z,24.40
2023-02-23T17:23:52.559Z,23.90
2023-02-23T17:26:21.946Z,30.30
2023-02-23T17:28:51.472Z,19.90
2023-02-23T17:31:22.368Z,23.90
2023-02-23T17:33:52.278Z,18.13
2023-02-23T17:36:20.495Z,26.67
2023-02-23T17:38:48.659Z,15.83
2023-02-23T17:41:18.267Z,20.63
2023-02-23T17:43:46.614Z,23.67
2023-02-23T17:46:16.291Z,18.43
2023-02-23T17:48:46.670Z,15.10
2023-02-23T17:51:16.826Z,16.23
2023-02-23T17:53:45.353Z,20.40
2023-02-23T17:56:13.589Z,17.43
2023-02-23T17:58:41.896Z,16.20
2023-02-23T18:01:10.144Z,18.93
2023-02-23T18:03:39.750Z,21.00
2023-02-23T18:06:08.739Z,15.33
2023-02-23T18:08:37.119Z,17.60
2023-02-23T18:11:05.695Z,14.20
2023-02-23T18:13:34.348Z,16.97
2023-02-23T18:16:03.982Z,22.97
2023-02-23T18:18:32.423Z,14.43
2023-02-23T18:21:02.755Z,16.73
2023-02-23T18:23:32.597Z,14.83
2023-02-23T18:26:07.958Z,16.37
2023-02-23T18:28:37.233Z,11.30
2023-02-23T18:31:05.649Z,14.83
2023-02-23T18:33:35.800Z,14.27
2023-02-23T18:36:14.773Z,14.17
2023-02-23T18:38:42.895Z,12.10
2023-02-23T18:41:11.077Z,16.53
2023-02-23T18:43:39.368Z,16.10
2023-02-23T18:46:07.788Z,16.53
2023-02-23T18:48:36.622Z,14.23
2023-02-23T18:51:07.054Z,14.60
2023-02-23T18:53:37.295Z,17.90
2023-02-23T18:56:06.714Z,11.60
2023-02-23T18:58:34.954Z,17.37
2023-02-23T19:01:03.221Z,12.70
2023-02-23T19:03:31.417Z,14.47
2023-02-23T19:05:59.542Z,16.47
2023-02-23T19:08:30.701Z,16.00
2023-02-23T19:10:59.186Z,14.63
2023-02-23T19:13:27.311Z,13.27
2023-02-23T19:15:55.741Z,14.90
2023-02-23T19:18:25.681Z,12.27
2023-02-23T19:20:55.389Z,17.87
2023-02-23T19:23:23.599Z,13.23
2023-02-23T19:25:53.540Z,17.00
2023-02-23T19:28:22.261Z,14.77
2023-02-23T19:30:50.469Z,15.07
2023-02-23T19:33:18.747Z,20.13
2023-02-23T19:35:47.050Z,17.33
2023-02-23T19:38:16.600Z,14.70
2023-02-23T19:40:45.634Z,14.97
2023-02-23T19:43:15.096Z,18.33
2023-02-23T19:45:46.052Z,15.20
2023-02-23T19:48:15.709Z,13.20
2023-02-23T19:50:47.662Z,15.03
2023-02-23T19:53:15.916Z,17.63
2023-02-23T19:55:45.075Z,11.60
2023-02-23T19:58:14.626Z,14.03
2023-02-23T20:00:42.782Z,13.93
2023-02-23T20:03:14.177Z,16.73
2023-02-23T20:05:42.480Z,12.53
2023-02-23T20:08:10.687Z,13.07
2023-02-23T20:10:41.452Z,14.63
2023-02-23T20:13:10.634Z,17.63
2023-02-23T20:15:40.214Z,13.47
2023-02-23T20:18:08.357Z,13.43
2023-02-23T20:20:36.932Z,15.77
2023-02-23T20:23:07.660Z,12.60
2023-02-23T20:25:35.947Z,14.70
2023-02-23T20:28:04.210Z,19.03
2023-02-23T20:30:32.705Z,16.03
2023-02-23T20:33:05.599Z,13.33
2023-02-23T20:35:33.888Z,15.33
2023-02-23T20:38:04.137Z,11.20
2023-02-23T20:40:32.405Z,14.33
2023-02-23T20:43:00.607Z,13.77
2023-02-23T20:45:28.876Z,22.93
2023-02-23T20:47:57.025Z,17.17
2023-02-23T20:50:28.668Z,12.13
2023-02-23T20:52:56.986Z,14.03
2023-02-23T20:55:27.137Z,16.17
2023-02-23T20:57:55.685Z,12.70
2023-02-23T21:00:31.967Z,15.80
2023-02-23T21:03:00.913Z,16.60
2023-02-23T21:05:31.416Z,9.70
2023-02-23T21:08:01.162Z,13.10
2023-02-23T21:10:31.530Z,12.73
2023-02-23T21:12:59.653Z,14.23
2023-02-23T21:15:29.106Z,10.40
2023-02-23T21:17:57.901Z,11.93
2023-02-23T21:20:27.491Z,14.20
2023-02-23T21:22:57.437Z,14.57
2023-02-23T21:25:26.344Z,12.90
2023-02-23T21:27:55.111Z,14.93
2023-02-23T21:30:24.253Z,11.10
2023-02-23T21:32:53.167Z,11.10
2023-02-23T21:35:21.891Z,9.87
2023-02-23T21:37:51.825Z,11.83
2023-02-23T21:40:23.268Z,16.47
2023-02-23T21:42:52.009Z,12.60
2023-02-23T21:45:20.395Z,10.07
2023-02-23T21:47:49.611Z,13.43
2023-02-23T21:50:18.829Z,12.00
2023-02-23T21:52:48.566Z,12.23
2023-02-23T21:55:22.088Z,10.23
2023-02-23T21:57:52.707Z,11.70
2023-02-23T22:00:21.905Z,13.70
2023-02-23T22:02:50.376Z,9.47
2023-02-23T22:05:20.132Z,10.37
2023-02-23T22:07:52.537Z,9.40
2023-02-23T22:10:21.717Z,11.97
2023-02-23T22:12:53.523Z,9.37
2023-02-23T22:15:27.047Z,11.17
2023-02-23T22:17:55.522Z,10.47
2023-02-23T22:20:24.732Z,10.17
2023-02-23T22:22:52.898Z,9.60
2023-02-23T22:25:21.762Z,8.07
2023-02-23T22:27:49.986Z,12.50
2023-02-23T22:30:20.531Z,7.37
2023-02-23T22:32:50.315Z,5.07
2023-02-23T22:35:18.675Z,8.53
2023-02-23T22:37:47.643Z,8.80
2023-02-23T22:40:16.875Z,11.93
2023-02-23T22:42:48.050Z,11.33
2023-02-23T22:45:16.983Z,11.40
2023-02-23T22:47:45.172Z,10.00
2023-02-23T22:50:18.085Z,10.30
2023-02-23T22:52:46.601Z,11.13
2023-02-23T22:55:14.882Z,7.73
2023-02-23T22:57:43.803Z,9.50
2023-02-23T23:00:12.453Z,8.63
2023-02-23T23:02:40.660Z,7.90
2023-02-23T23:05:09.950Z,7.97
2023-02-23T23:07:39.467Z,8.93
2023-02-23T23:10:09.284Z,11.90
2023-02-23T23:12:37.968Z,8.50
2023-02-23T23:15:14.671Z,7.97
2023-02-23T23:17:47.986Z,8.33
2023-02-23T23:20:16.575Z,10.20
2023-02-23T23:22:46.094Z,12.10
2023-02-23T23:25:15.608Z,8.43
2023-02-23T23:27:45.728Z,8.43
2023-02-23T23:30:15.336Z,9.00
2023-02-23T23:32:43.687Z,10.10
2023-02-23T23:37:43.710Z,9.40
2023-02-23T23:40:16.941Z,9.30
2023-02-23T23:42:46.761Z,12.73
2023-02-23T23:45:16.190Z,8.30
2023-02-23T23:47:44.851Z,10.00
2023-02-23T23:50:13.891Z,8.70
2023-02-23T23:52:43.740Z,10.97
2023-02-23T23:55:14.626Z,8.63
2023-02-23T23:57:43.204Z,10.00
